This is the latest recevied weather packets stored in our database for station/object K1BWE-1. If no packets are shown the sender has not sent any weather packets the latest 10 day(s).
| Time | Temp. | Humidity | Pressure | Rain* | Wind** | Luminosity | Snow |
|---|---|---|---|---|---|---|---|
| 1778001709 | 17.78° C | 71% | 1014 hPa | 0 mm | - | 365 W/m² | - |
| 1778001404 | 16.67° C | 71% | 1014.2 hPa | 0 mm | - | 370 W/m² | - |
| 1778001102 | 16.67° C | 73% | 1014.3 hPa | 0 mm | - | 284 W/m² | - |
| 1778000798 | 16.67° C | 74% | 1014.3 hPa | 0 mm | - | 288 W/m² | - |
| 1778000495 | 16.67° C | 74% | 1014.1 hPa | 0 mm | - | 281 W/m² | - |
| 1778000190 | 17.22° C | 74% | 1014 hPa | 0 mm | - | 334 W/m² | - |
| 1777999886 | 17.22° C | 75% | 1014.3 hPa | 0 mm | - | 258 W/m² | - |
| 1777999581 | 17.22° C | 73% | 1014.4 hPa | 0 mm | - | 1379 W/m² | - |
| 1777999279 | 16.67° C | 77% | 1014.2 hPa | 0 mm | - | 515 W/m² | - |
| 1777998978 | 16.11° C | 79% | 1014.2 hPa | 0 mm | - | 302 W/m² | - |
| 1777998675 | 15.56° C | 79% | 1014.3 hPa | 0 mm | - | 281 W/m² | - |
| 1777998372 | 15.56° C | 81% | 1014.5 hPa | 0 mm | - | 201 W/m² | - |
| 1777998070 | 15.56° C | 82% | 1014.1 hPa | 0 mm | - | 178 W/m² | - |
| 1777997767 | 15.56° C | 81% | 1014.3 hPa | 0 mm | - | 177 W/m² | - |
| 1777997464 | 15.56° C | 84% | 1014.3 hPa | 0 mm | - | 105 W/m² | - |
| 1777997161 | 15.56° C | 85% | 1014.1 hPa | 0 mm | - | 156 W/m² | - |
| 1777996859 | 15.56° C | 86% | 1014.2 hPa | 0 mm | - | 157 W/m² | - |
| 1777996555 | 15.56° C | 88% | 1014.2 hPa | 0 mm | - | 210 W/m² | - |
| 1777996251 | 15.56° C | 88% | 1014.1 hPa | 0 mm | - | 194 W/m² | - |
| 1777995947 | 15.56° C | 89% | 1014.3 hPa | 0 mm | - | 169 W/m² | - |
| 1777995644 | 15.56° C | 90% | 1014.2 hPa | 0 mm | - | 168 W/m² | - |
| 1777995341 | 15° C | 90% | 1014.2 hPa | 0 mm | - | 216 W/m² | - |
| 1777995038 | 15° C | 91% | 1014.2 hPa | 0 mm | - | 215 W/m² | - |
| 1777994735 | 15° C | 91% | 1014.1 hPa | 0 mm | - | 88 W/m² | - |
| 1777994430 | 14.44° C | 91% | 1014 hPa | 0 mm | - | 74 W/m² | - |
* Rain latest hour (hover to see other rain measurements)
** Current wind speed in m/s (hover to see current wind gust speed)